Terminal Aerodrome Forecast
Issued by NWS Huntsville, AL

Home | Current Version | Previous Version | Text Only | Print | Product List | Glossary On
Versions: 1 2 3 4 5 6 7 8 9 10 11 12 13
000
FTUS44 KHUN 171140
TAFHSV
TAF
KHSV 171140Z 1712/1812 12007KT P6SM SCT250
     FM171800 14009KT P6SM SCT035 BKN250
     FM172300 12007KT P6SM BKN035 BKN150 OVC250=

USA.gov is the U.S. government's official web portal to all federal, state and local government web resources and services.